createdAt,value
2024-03-16T00:01:05.322Z,100902.06
2024-03-16T00:03:33.325Z,100908.19
2024-03-16T00:06:00.266Z,100916.38
2024-03-16T00:08:27.161Z,100910.63
2024-03-16T00:10:54.168Z,100923.16
2024-03-16T00:13:20.952Z,100926.59
2024-03-16T00:15:53.418Z,100927.75
2024-03-16T00:18:20.215Z,100920.31
2024-03-16T00:20:46.967Z,100935.66
2024-03-16T00:23:13.940Z,100947.00
2024-03-16T00:25:41.703Z,100943.72
2024-03-16T00:28:09.138Z,100944.00
2024-03-16T00:30:36.062Z,100954.72
2024-03-16T00:33:03.432Z,100955.84
2024-03-16T00:35:33.251Z,100971.69
2024-03-16T00:38:00.062Z,100976.78
2024-03-16T00:40:26.844Z,100982.19
2024-03-16T00:42:53.672Z,100986.78
2024-03-16T00:45:20.438Z,100981.94
2024-03-16T00:47:47.411Z,100982.41
2024-03-16T00:50:16.108Z,100983.41
2024-03-16T00:52:43.020Z,100981.91
2024-03-16T00:55:10.995Z,100991.25
2024-03-16T00:57:38.045Z,100996.69
2024-03-16T01:00:05.143Z,101000.97
2024-03-16T01:02:32.758Z,101000.00
2024-03-16T01:04:59.562Z,101007.91
2024-03-16T01:07:29.324Z,101007.91
2024-03-16T01:09:57.060Z,101007.72
2024-03-16T01:12:23.929Z,101021.59
2024-03-16T01:14:50.721Z,101023.53
2024-03-16T01:17:17.613Z,101030.78
2024-03-16T01:19:45.474Z,101040.50
2024-03-16T01:22:12.567Z,101050.22
2024-03-16T01:24:39.373Z,101047.06
2024-03-16T01:27:06.707Z,101051.66
2024-03-16T01:29:34.233Z,101050.00
2024-03-16T01:32:09.211Z,101058.72
2024-03-16T01:34:36.804Z,101065.16
2024-03-16T01:37:03.906Z,101067.59
2024-03-16T01:39:31.387Z,101076.34
2024-03-16T01:42:09.901Z,101083.28
2024-03-16T01:44:36.655Z,101080.63
2024-03-16T01:47:04.823Z,101080.50
2024-03-16T01:49:31.571Z,101085.59
2024-03-16T01:52:01.494Z,101082.81
2024-03-16T01:54:28.472Z,101086.97
2024-03-16T01:56:55.340Z,101089.97
2024-03-16T01:59:22.212Z,101085.69
2024-03-16T02:01:49.410Z,101090.81
2024-03-16T02:04:16.345Z,101096.88
2024-03-16T02:06:50.434Z,101108.78
2024-03-16T02:09:17.366Z,101111.09
2024-03-16T02:11:44.123Z,101106.66
2024-03-16T02:14:11.018Z,101117.06
2024-03-16T02:16:37.909Z,101123.19
2024-03-16T02:19:04.820Z,101125.66
2024-03-16T02:21:31.627Z,101130.78
2024-03-16T02:23:58.987Z,101125.53
2024-03-16T02:26:26.174Z,101136.75
2024-03-16T02:28:53.266Z,101140.03
2024-03-16T02:31:20.026Z,101149.25
2024-03-16T02:33:46.816Z,101150.06
2024-03-16T02:36:14.671Z,101151.75
2024-03-16T02:38:41.904Z,101150.06
2024-03-16T02:41:08.960Z,101151.06
2024-03-16T02:43:35.815Z,101154.53
2024-03-16T02:46:02.603Z,101159.94
2024-03-16T02:48:29.410Z,101172.13
2024-03-16T02:50:56.272Z,101166.72
2024-03-16T02:53:24.161Z,101171.84
2024-03-16T02:55:50.956Z,101173.66
2024-03-16T02:58:17.887Z,101184.22
2024-03-16T03:00:45.634Z,101184.03
2024-03-16T03:03:13.452Z,101183.88
2024-03-16T03:05:40.880Z,101189.84
2024-03-16T03:08:07.683Z,101195.13
2024-03-16T03:10:34.448Z,101184.72
2024-03-16T03:13:02.906Z,101193.16
2024-03-16T03:15:29.882Z,101201.81
2024-03-16T03:17:56.703Z,101199.03
2024-03-16T03:20:25.259Z,101200.84
2024-03-16T03:22:52.143Z,101215.84
2024-03-16T03:25:20.466Z,101219.31
2024-03-16T03:27:47.542Z,101226.38
2024-03-16T03:30:14.454Z,101222.91
2024-03-16T03:32:41.570Z,101229.16
2024-03-16T03:35:08.550Z,101226.53
2024-03-16T03:37:35.623Z,101237.75
2024-03-16T03:40:02.577Z,101244.00
2024-03-16T03:42:31.099Z,101245.13
2024-03-16T03:45:15.782Z,101245.81
2024-03-16T03:48:02.018Z,101256.50
2024-03-16T03:50:30.642Z,101255.66
2024-03-16T03:53:00.879Z,101256.34
2024-03-16T03:55:27.858Z,101255.66
2024-03-16T03:57:55.904Z,101257.31
2024-03-16T04:00:26.759Z,101262.47
2024-03-16T04:02:53.567Z,101273.16
2024-03-16T04:05:20.427Z,101277.44
2024-03-16T04:07:47.468Z,101273.84
2024-03-16T04:10:14.247Z,101282.59
2024-03-16T04:12:41.212Z,101272.19
2024-03-16T04:15:08.150Z,101285.34
2024-03-16T04:17:34.928Z,101289.94
2024-03-16T04:20:02.005Z,101292.84
2024-03-16T04:22:28.725Z,101295.38
2024-03-16T04:24:55.653Z,101302.56
2024-03-16T04:27:22.524Z,101300.75
2024-03-16T04:29:49.258Z,101307.97
2024-03-16T04:32:16.005Z,101307.31
2024-03-16T04:34:42.824Z,101299.53
2024-03-16T04:37:10.222Z,101303.28
2024-03-16T04:39:37.200Z,101308.16
2024-03-16T04:42:04.097Z,101303.50
2024-03-16T04:44:30.842Z,101305.91
2024-03-16T04:46:58.237Z,101311.88
2024-03-16T04:49:25.046Z,101324.53
2024-03-16T04:51:51.998Z,101324.00
2024-03-16T04:54:18.867Z,101332.03
2024-03-16T04:56:45.601Z,101335.09
2024-03-16T04:59:12.825Z,101335.25
2024-03-16T05:01:39.785Z,101346.91
2024-03-16T05:04:06.892Z,101344.41
2024-03-16T05:06:35.319Z,101347.19
2024-03-16T05:09:09.334Z,101352.63
2024-03-16T05:11:37.554Z,101356.09
2024-03-16T05:14:07.694Z,101364.25
2024-03-16T05:16:35.214Z,101363.59
2024-03-16T05:19:04.141Z,101364.38
2024-03-16T05:21:34.541Z,101367.72
2024-03-16T05:24:03.029Z,101372.59
2024-03-16T05:26:32.571Z,101377.16
2024-03-16T05:28:59.476Z,101386.59
2024-03-16T05:31:27.428Z,101374.53
2024-03-16T05:33:54.533Z,101389.22
2024-03-16T05:36:24.767Z,101396.97
2024-03-16T05:38:51.674Z,101391.44
2024-03-16T05:41:18.567Z,101397.69
2024-03-16T05:43:45.796Z,101402.94
2024-03-16T05:46:13.109Z,101411.69
2024-03-16T05:48:40.135Z,101411.81
2024-03-16T05:51:07.165Z,101410.44
2024-03-16T05:53:33.965Z,101420.00
2024-03-16T05:56:00.745Z,101426.78
2024-03-16T05:58:27.610Z,101434.41
2024-03-16T06:00:55.402Z,101431.66
2024-03-16T06:03:22.287Z,101433.44
2024-03-16T06:05:49.081Z,101434.94
2024-03-16T06:08:15.811Z,101427.19
2024-03-16T06:10:43.186Z,101428.72
2024-03-16T06:13:12.272Z,101435.50
2024-03-16T06:15:40.898Z,101448.97
2024-03-16T06:18:07.968Z,101450.22
2024-03-16T06:20:35.040Z,101460.63
2024-03-16T06:23:02.068Z,101453.38
2024-03-16T06:25:30.924Z,101458.78
2024-03-16T06:28:07.982Z,101460.44
2024-03-16T06:30:37.316Z,101457.97
2024-03-16T06:33:07.676Z,101464.75
2024-03-16T06:35:34.849Z,101480.13
2024-03-16T06:38:01.699Z,101473.91
2024-03-16T06:40:31.583Z,101474.88
2024-03-16T06:42:58.471Z,101484.72
2024-03-16T06:45:25.227Z,101491.63
2024-03-16T06:47:52.193Z,101495.09
2024-03-16T06:50:19.126Z,101508.97
2024-03-16T06:52:46.820Z,101508.84
2024-03-16T06:55:14.822Z,101519.22
2024-03-16T06:57:41.686Z,101519.63
2024-03-16T07:00:10.662Z,101523.81
2024-03-16T07:02:37.434Z,101527.00
2024-03-16T07:05:04.411Z,101531.56
2024-03-16T07:07:31.821Z,101530.72
2024-03-16T07:09:59.465Z,101537.41
2024-03-16T07:12:26.309Z,101533.22
2024-03-16T07:14:53.221Z,101546.25
2024-03-16T07:17:20.194Z,101550.81
2024-03-16T07:19:47.212Z,101552.22
2024-03-16T07:22:14.491Z,101542.81
2024-03-16T07:24:41.388Z,101547.53
2024-03-16T07:27:08.804Z,101559.97
2024-03-16T07:29:35.636Z,101555.97
2024-03-16T07:32:02.442Z,101556.38
2024-03-16T07:34:29.668Z,101572.06
2024-03-16T07:36:58.684Z,101574.09
2024-03-16T07:39:25.672Z,101574.94
2024-03-16T07:41:54.765Z,101581.63
2024-03-16T07:44:21.746Z,101590.34
2024-03-16T07:46:49.727Z,101599.47
2024-03-16T07:49:16.595Z,101601.56
2024-03-16T07:51:45.450Z,101601.56
2024-03-16T07:54:16.737Z,101610.31
2024-03-16T07:56:43.495Z,101616.13
2024-03-16T07:59:11.209Z,101619.75
2024-03-16T08:01:38.314Z,101617.09
2024-03-16T08:04:05.914Z,101614.63
2024-03-16T08:06:32.928Z,101618.06
2024-03-16T08:09:00.027Z,101614.88
2024-03-16T08:11:29.340Z,101622.66
2024-03-16T08:13:56.200Z,101632.91
2024-03-16T08:16:23.139Z,101627.75
2024-03-16T08:18:50.536Z,101631.09
2024-03-16T08:21:17.660Z,101629.72
2024-03-16T08:23:45.409Z,101637.06
2024-03-16T08:26:13.913Z,101634.28
2024-03-16T08:28:40.763Z,101639.28
2024-03-16T08:31:07.714Z,101642.59
2024-03-16T08:33:34.682Z,101639.41
2024-03-16T08:36:01.549Z,101655.66
2024-03-16T08:38:28.555Z,101650.38
2024-03-16T08:40:56.932Z,101652.31
2024-03-16T08:43:23.978Z,101656.19
2024-03-16T08:45:50.966Z,101661.63
2024-03-16T08:48:17.899Z,101663.28
2024-03-16T08:50:46.014Z,101666.22
2024-03-16T08:53:12.790Z,101664.66
2024-03-16T08:55:39.679Z,101663.09
2024-03-16T08:58:08.731Z,101666.41
2024-03-16T09:00:35.603Z,101670.69
2024-03-16T09:03:02.466Z,101673.69
2024-03-16T09:05:29.463Z,101666.69
2024-03-16T09:07:56.220Z,101665.00
2024-03-16T09:10:36.711Z,101678.50
2024-03-16T09:13:03.500Z,101668.75
2024-03-16T09:15:30.411Z,101671.97
2024-03-16T09:17:57.218Z,101672.69
2024-03-16T09:20:24.030Z,101675.59
2024-03-16T09:22:53.556Z,101683.50
2024-03-16T09:25:22.081Z,101679.38
2024-03-16T09:27:49.114Z,101681.19
2024-03-16T09:30:21.841Z,101674.47
2024-03-16T09:32:48.600Z,101681.97
2024-03-16T09:35:15.652Z,101672.31
2024-03-16T09:37:42.490Z,101669.81
2024-03-16T09:40:15.441Z,101667.94
2024-03-16T09:42:42.624Z,101671.84
